パゴパゴ の空港の天気 - METARとTAF

パゴパゴ国際空港 ( NSTU / PPG ) - アメリカ領サモア パゴパゴ
飛行場実況気象(Metar)
観測時間05/25 11:50 SST (05/25 22:50 UTC)
風向・風速東南東 6m/s
視程10km以上
天気現象
全天の4割程度の雲 雲底高度 490m
全天の4割程度の雲 雲底高度 1070m
全天の8割程度の雲 雲底高度 2740m
気温31.3℃
湿度76%
気圧1013.9hPa
METARNSTU 252250Z 12012KT 12SM SCT016TCU SCT035 BKN090 31/27 A2994 RMK TCU NW-N-NE SLP139 T03130265
過去の天気等 Google飛行場航空写真 Wunderground天気予報

過去48時間のMETAR

飛行場予報(TAF)
発表時間: 5/25 12:38 SST (5/25 23:38 UTC)
予報対象時間: 25日13時 SST ~ 26日13時 SST
風向・風速東南東 6m/s
視程10km以上
全天の4割程度の雲 雲底高度 610m
全天の8割程度の雲 雲底高度 1220m
26日1時 SST から
風向・風速東 5m/s
視程10km以上
天気現象周辺でしゅう雨
全天の4割程度の雲 雲底高度 460m
全天の4割程度の雲 雲底高度 760m
全天の8割程度の雲 雲底高度 1070m
NSTU 252338Z 2600/2624 11011KT P6SM SCT020 BKN040
FM261200 10010KT P6SM VCSH SCT015 SCT025 BKN035